sensor_id;sensor_type;location;lat;lon;timestamp;temperature;humidity
39969;DHT22;25648;47.808;19.004;2022-12-07T00:01:19;14.20;55.60
39969;DHT22;25648;47.808;19.004;2022-12-07T00:03:47;14.10;55.70
39969;DHT22;25648;47.808;19.004;2022-12-07T00:06:15;13.90;55.70
39969;DHT22;25648;47.808;19.004;2022-12-07T00:08:41;13.60;56.40
39969;DHT22;25648;47.808;19.004;2022-12-07T00:11:12;13.60;56.40
39969;DHT22;25648;47.808;19.004;2022-12-07T00:13:39;13.60;56.10
39969;DHT22;25648;47.808;19.004;2022-12-07T00:16:14;13.60;56.40
39969;DHT22;25648;47.808;19.004;2022-12-07T00:18:40;13.70;56.10
39969;DHT22;25648;47.808;19.004;2022-12-07T00:23:41;12.70;57.40
39969;DHT22;25648;47.808;19.004;2022-12-07T00:26:10;12.50;58.10
39969;DHT22;25648;47.808;19.004;2022-12-07T00:28:36;12.70;57.50
39969;DHT22;25648;47.808;19.004;2022-12-07T00:31:11;12.90;57.10
39969;DHT22;25648;47.808;19.004;2022-12-07T00:33:37;12.70;57.40
39969;DHT22;25648;47.808;19.004;2022-12-07T00:36:06;12.70;57.60
39969;DHT22;25648;47.808;19.004;2022-12-07T00:38:33;12.90;57.50
39969;DHT22;25648;47.808;19.004;2022-12-07T00:41:05;13.10;57.20
39969;DHT22;25648;47.808;19.004;2022-12-07T00:43:31;13.30;57.00
39969;DHT22;25648;47.808;19.004;2022-12-07T00:45:57;13.50;56.70
39969;DHT22;25648;47.808;19.004;2022-12-07T00:48:23;13.70;56.40
39969;DHT22;25648;47.808;19.004;2022-12-07T00:50:49;13.50;56.60
39969;DHT22;25648;47.808;19.004;2022-12-07T00:53:15;13.30;57.70
39969;DHT22;25648;47.808;19.004;2022-12-07T00:55:42;13.50;57.10
39969;DHT22;25648;47.808;19.004;2022-12-07T00:58:07;13.50;56.90
39969;DHT22;25648;47.808;19.004;2022-12-07T01:00:35;13.40;56.90
39969;DHT22;25648;47.808;19.004;2022-12-07T01:03:03;13.60;57.30
39969;DHT22;25648;47.808;19.004;2022-12-07T01:05:28;13.80;56.60
39969;DHT22;25648;47.808;19.004;2022-12-07T01:07:54;13.80;57.10
39969;DHT22;25648;47.808;19.004;2022-12-07T01:10:20;13.90;56.20
39969;DHT22;25648;47.808;19.004;2022-12-07T01:12:45;13.90;56.10
39969;DHT22;25648;47.808;19.004;2022-12-07T01:15:11;13.80;56.10
39969;DHT22;25648;47.808;19.004;2022-12-07T01:17:37;13.50;56.00
39969;DHT22;25648;47.808;19.004;2022-12-07T01:20:03;13.40;56.40
39969;DHT22;25648;47.808;19.004;2022-12-07T01:22:29;13.20;56.80
39969;DHT22;25648;47.808;19.004;2022-12-07T01:24:54;13.00;57.30
39969;DHT22;25648;47.808;19.004;2022-12-07T01:27:21;13.00;57.20
39969;DHT22;25648;47.808;19.004;2022-12-07T01:29:46;13.00;57.50
39969;DHT22;25648;47.808;19.004;2022-12-07T01:32:12;13.10;57.60
39969;DHT22;25648;47.808;19.004;2022-12-07T01:34:38;13.20;57.90
39969;DHT22;25648;47.808;19.004;2022-12-07T01:37:04;13.20;57.70
39969;DHT22;25648;47.808;19.004;2022-12-07T01:39:29;13.40;57.60
39969;DHT22;25648;47.808;19.004;2022-12-07T01:41:55;13.40;57.40
39969;DHT22;25648;47.808;19.004;2022-12-07T01:46:57;12.90;58.40
39969;DHT22;25648;47.808;19.004;2022-12-07T01:49:30;13.00;58.50
39969;DHT22;25648;47.808;19.004;2022-12-07T01:52:14;13.00;58.80
39969;DHT22;25648;47.808;19.004;2022-12-07T01:54:42;13.10;58.60
39969;DHT22;25648;47.808;19.004;2022-12-07T01:57:09;13.20;58.80
39969;DHT22;25648;47.808;19.004;2022-12-07T01:59:36;13.30;58.50
39969;DHT22;25648;47.808;19.004;2022-12-07T02:02:05;13.50;58.30
39969;DHT22;25648;47.808;19.004;2022-12-07T02:04:33;13.50;58.10
39969;DHT22;25648;47.808;19.004;2022-12-07T02:06:59;13.60;57.60
39969;DHT22;25648;47.808;19.004;2022-12-07T02:09:25;13.50;58.20
39969;DHT22;25648;47.808;19.004;2022-12-07T02:11:51;13.70;57.80
39969;DHT22;25648;47.808;19.004;2022-12-07T02:14:17;13.90;57.50
39969;DHT22;25648;47.808;19.004;2022-12-07T02:17:08;13.90;57.20
39969;DHT22;25648;47.808;19.004;2022-12-07T02:20:00;13.70;57.50
39969;DHT22;25648;47.808;19.004;2022-12-07T02:28:18;14.10;57.00
39969;DHT22;25648;47.808;19.004;2022-12-07T02:30:48;14.30;56.60
39969;DHT22;25648;47.808;19.004;2022-12-07T02:33:28;14.30;56.70
39969;DHT22;25648;47.808;19.004;2022-12-07T02:36:02;14.30;56.70
39969;DHT22;25648;47.808;19.004;2022-12-07T02:38:51;14.30;56.50
39969;DHT22;25648;47.808;19.004;2022-12-07T02:41:20;14.20;56.50
39969;DHT22;25648;47.808;19.004;2022-12-07T02:43:57;14.20;56.60
39969;DHT22;25648;47.808;19.004;2022-12-07T02:46:28;14.10;56.70
39969;DHT22;25648;47.808;19.004;2022-12-07T02:48:55;14.20;56.60
39969;DHT22;25648;47.808;19.004;2022-12-07T02:51:22;14.10;57.00
39969;DHT22;25648;47.808;19.004;2022-12-07T02:53:48;14.20;56.70
39969;DHT22;25648;47.808;19.004;2022-12-07T03:07:32;14.20;57.30
39969;DHT22;25648;47.808;19.004;2022-12-07T03:13:02;14.20;57.40
39969;DHT22;25648;47.808;19.004;2022-12-07T03:18:25;14.10;57.60
39969;DHT22;25648;47.808;19.004;2022-12-07T03:20:56;14.10;57.70
39969;DHT22;25648;47.808;19.004;2022-12-07T03:23:25;13.90;58.10
39969;DHT22;25648;47.808;19.004;2022-12-07T03:25:56;13.90;58.10
39969;DHT22;25648;47.808;19.004;2022-12-07T03:28:26;13.80;58.70
39969;DHT22;25648;47.808;19.004;2022-12-07T03:31:01;13.70;58.50
39969;DHT22;25648;47.808;19.004;2022-12-07T03:33:55;13.50;58.50
39969;DHT22;25648;47.808;19.004;2022-12-07T03:41:51;12.60;61.30
39969;DHT22;25648;47.808;19.004;2022-12-07T03:44:18;12.50;61.80
39969;DHT22;25648;47.808;19.004;2022-12-07T03:49:53;12.90;60.30
39969;DHT22;25648;47.808;19.004;2022-12-07T03:57:43;13.10;60.70
39969;DHT22;25648;47.808;19.004;2022-12-07T04:00:11;13.40;59.60
39969;DHT22;25648;47.808;19.004;2022-12-07T04:02:37;13.50;59.80
39969;DHT22;25648;47.808;19.004;2022-12-07T04:05:04;13.60;59.00
39969;DHT22;25648;47.808;19.004;2022-12-07T04:07:29;13.60;59.10
39969;DHT22;25648;47.808;19.004;2022-12-07T04:09:55;13.10;59.80
39969;DHT22;25648;47.808;19.004;2022-12-07T04:12:22;12.50;61.60
39969;DHT22;25648;47.808;19.004;2022-12-07T04:14:47;12.60;61.10
39969;DHT22;25648;47.808;19.004;2022-12-07T04:17:13;13.00;60.90
39969;DHT22;25648;47.808;19.004;2022-12-07T04:19:39;13.30;59.80
39969;DHT22;25648;47.808;19.004;2022-12-07T04:22:05;13.10;60.80
39969;DHT22;25648;47.808;19.004;2022-12-07T04:24:31;13.20;60.40
39969;DHT22;25648;47.808;19.004;2022-12-07T04:26:57;13.10;60.50
39969;DHT22;25648;47.808;19.004;2022-12-07T04:29:23;13.30;60.10
39969;DHT22;25648;47.808;19.004;2022-12-07T04:31:49;13.50;59.40
39969;DHT22;25648;47.808;19.004;2022-12-07T04:34:16;13.70;59.50
39969;DHT22;25648;47.808;19.004;2022-12-07T04:36:42;13.90;58.90
39969;DHT22;25648;47.808;19.004;2022-12-07T04:39:14;14.00;58.60
39969;DHT22;25648;47.808;19.004;2022-12-07T04:41:42;14.10;58.40
39969;DHT22;25648;47.808;19.004;2022-12-07T04:44:08;14.00;58.10
39969;DHT22;25648;47.808;19.004;2022-12-07T04:46:34;13.90;58.60
39969;DHT22;25648;47.808;19.004;2022-12-07T04:48:59;13.60;59.00
39969;DHT22;25648;47.808;19.004;2022-12-07T04:51:27;13.50;59.30
39969;DHT22;25648;47.808;19.004;2022-12-07T04:53:55;13.50;59.60
39969;DHT22;25648;47.808;19.004;2022-12-07T04:56:22;13.60;59.30
39969;DHT22;25648;47.808;19.004;2022-12-07T04:58:48;13.70;58.90
39969;DHT22;25648;47.808;19.004;2022-12-07T05:01:16;13.80;58.60
39969;DHT22;25648;47.808;19.004;2022-12-07T05:03:42;13.70;59.00
39969;DHT22;25648;47.808;19.004;2022-12-07T05:06:09;13.60;58.90
39969;DHT22;25648;47.808;19.004;2022-12-07T05:08:36;13.50;59.10
39969;DHT22;25648;47.808;19.004;2022-12-07T05:11:03;13.10;60.10
39969;DHT22;25648;47.808;19.004;2022-12-07T05:13:28;13.10;60.10
39969;DHT22;25648;47.808;19.004;2022-12-07T05:15:54;13.10;60.50
39969;DHT22;25648;47.808;19.004;2022-12-07T05:18:20;13.40;59.70
39969;DHT22;25648;47.808;19.004;2022-12-07T05:20:46;13.40;59.50
39969;DHT22;25648;47.808;19.004;2022-12-07T05:23:12;13.50;60.00
39969;DHT22;25648;47.808;19.004;2022-12-07T05:25:37;13.00;60.30
39969;DHT22;25648;47.808;19.004;2022-12-07T05:28:04;12.70;61.20
39969;DHT22;25648;47.808;19.004;2022-12-07T05:30:30;13.00;60.80
39969;DHT22;25648;47.808;19.004;2022-12-07T05:32:56;13.30;59.60
39969;DHT22;25648;47.808;19.004;2022-12-07T05:35:22;13.30;59.60
39969;DHT22;25648;47.808;19.004;2022-12-07T05:37:48;13.30;59.80
39969;DHT22;25648;47.808;19.004;2022-12-07T05:40:15;13.50;59.60
39969;DHT22;25648;47.808;19.004;2022-12-07T05:42:41;13.40;59.30
39969;DHT22;25648;47.808;19.004;2022-12-07T05:45:07;13.40;59.90
39969;DHT22;25648;47.808;19.004;2022-12-07T05:47:33;13.40;59.60
39969;DHT22;25648;47.808;19.004;2022-12-07T05:49:59;13.60;59.50
39969;DHT22;25648;47.808;19.004;2022-12-07T05:52:25;13.80;58.80
39969;DHT22;25648;47.808;19.004;2022-12-07T05:54:51;13.90;58.60
39969;DHT22;25648;47.808;19.004;2022-12-07T05:57:18;14.00;58.40
39969;DHT22;25648;47.808;19.004;2022-12-07T05:59:43;13.50;59.40
39969;DHT22;25648;47.808;19.004;2022-12-07T06:02:11;13.30;59.90
39969;DHT22;25648;47.808;19.004;2022-12-07T06:04:42;13.30;60.00
39969;DHT22;25648;47.808;19.004;2022-12-07T06:07:09;13.20;59.80
39969;DHT22;25648;47.808;19.004;2022-12-07T06:09:35;13.00;60.30
39969;DHT22;25648;47.808;19.004;2022-12-07T06:12:02;13.10;60.10
39969;DHT22;25648;47.808;19.004;2022-12-07T06:14:47;13.10;60.10
39969;DHT22;25648;47.808;19.004;2022-12-07T06:17:13;13.00;60.40
39969;DHT22;25648;47.808;19.004;2022-12-07T06:19:40;13.20;60.10
39969;DHT22;25648;47.808;19.004;2022-12-07T06:22:05;13.40;59.70
39969;DHT22;25648;47.808;19.004;2022-12-07T06:24:32;13.40;59.30
39969;DHT22;25648;47.808;19.004;2022-12-07T06:26:58;13.30;59.50
39969;DHT22;25648;47.808;19.004;2022-12-07T06:29:24;13.10;59.80
39969;DHT22;25648;47.808;19.004;2022-12-07T06:31:50;12.60;60.60
39969;DHT22;25648;47.808;19.004;2022-12-07T06:34:18;12.50;61.20
39969;DHT22;25648;47.808;19.004;2022-12-07T06:36:44;12.50;61.20
39969;DHT22;25648;47.808;19.004;2022-12-07T06:39:10;11.90;61.80
39969;DHT22;25648;47.808;19.004;2022-12-07T06:41:37;11.50;63.80
39969;DHT22;25648;47.808;19.004;2022-12-07T06:44:06;11.30;64.10
39969;DHT22;25648;47.808;19.004;2022-12-07T06:46:32;11.60;63.90
39969;DHT22;25648;47.808;19.004;2022-12-07T06:48:58;11.60;63.20
39969;DHT22;25648;47.808;19.004;2022-12-07T06:51:24;11.40;63.50
39969;DHT22;25648;47.808;19.004;2022-12-07T06:53:50;11.30;64.60
39969;DHT22;25648;47.808;19.004;2022-12-07T06:56:15;11.40;64.00
39969;DHT22;25648;47.808;19.004;2022-12-07T06:58:41;11.80;63.30
39969;DHT22;25648;47.808;19.004;2022-12-07T07:01:15;11.70;63.10
39969;DHT22;25648;47.808;19.004;2022-12-07T07:03:42;11.60;63.20
39969;DHT22;25648;47.808;19.004;2022-12-07T07:06:09;11.50;63.70
39969;DHT22;25648;47.808;19.004;2022-12-07T07:08:35;11.80;62.50
39969;DHT22;25648;47.808;19.004;2022-12-07T07:11:01;11.90;62.50
39969;DHT22;25648;47.808;19.004;2022-12-07T07:13:27;12.00;62.40
39969;DHT22;25648;47.808;19.004;2022-12-07T07:15:56;12.30;61.80
39969;DHT22;25648;47.808;19.004;2022-12-07T07:18:22;12.40;61.00
39969;DHT22;25648;47.808;19.004;2022-12-07T07:20:50;12.50;60.90
39969;DHT22;25648;47.808;19.004;2022-12-07T07:23:16;12.50;61.00
39969;DHT22;25648;47.808;19.004;2022-12-07T07:25:41;12.80;60.40
39969;DHT22;25648;47.808;19.004;2022-12-07T07:28:07;12.90;59.60
39969;DHT22;25648;47.808;19.004;2022-12-07T07:30:33;13.00;60.10
39969;DHT22;25648;47.808;19.004;2022-12-07T07:33:00;13.10;59.80
39969;DHT22;25648;47.808;19.004;2022-12-07T07:35:27;13.40;59.40
39969;DHT22;25648;47.808;19.004;2022-12-07T07:37:53;13.30;58.70
39969;DHT22;25648;47.808;19.004;2022-12-07T07:40:19;13.00;59.20
39969;DHT22;25648;47.808;19.004;2022-12-07T07:42:47;13.00;59.40
39969;DHT22;25648;47.808;19.004;2022-12-07T07:45:13;12.80;60.00
39969;DHT22;25648;47.808;19.004;2022-12-07T07:47:39;13.20;59.20
39969;DHT22;25648;47.808;19.004;2022-12-07T07:50:05;13.30;58.80
39969;DHT22;25648;47.808;19.004;2022-12-07T07:52:31;13.20;59.40
39969;DHT22;25648;47.808;19.004;2022-12-07T07:54:57;13.50;58.70
39969;DHT22;25648;47.808;19.004;2022-12-07T07:57:23;13.80;57.60
39969;DHT22;25648;47.808;19.004;2022-12-07T07:59:49;13.90;58.10
39969;DHT22;25648;47.808;19.004;2022-12-07T08:02:19;13.80;57.70
39969;DHT22;25648;47.808;19.004;2022-12-07T08:04:45;14.10;57.50
39969;DHT22;25648;47.808;19.004;2022-12-07T08:07:12;14.00;57.70
39969;DHT22;25648;47.808;19.004;2022-12-07T08:09:38;13.90;57.70
39969;DHT22;25648;47.808;19.004;2022-12-07T08:12:04;13.80;57.70
39969;DHT22;25648;47.808;19.004;2022-12-07T08:14:30;13.80;58.00
39969;DHT22;25648;47.808;19.004;2022-12-07T08:16:56;14.30;58.10
39969;DHT22;25648;47.808;19.004;2022-12-07T08:19:22;14.70;56.90
39969;DHT22;25648;47.808;19.004;2022-12-07T08:21:48;14.90;56.40
39969;DHT22;25648;47.808;19.004;2022-12-07T08:24:14;14.80;55.60
39969;DHT22;25648;47.808;19.004;2022-12-07T08:26:40;14.70;56.60
39969;DHT22;25648;47.808;19.004;2022-12-07T08:29:06;14.90;56.00
39969;DHT22;25648;47.808;19.004;2022-12-07T08:31:32;14.90;55.60
39969;DHT22;25648;47.808;19.004;2022-12-07T08:33:58;14.80;56.60
39969;DHT22;25648;47.808;19.004;2022-12-07T08:36:24;15.20;55.60
39969;DHT22;25648;47.808;19.004;2022-12-07T08:38:50;15.40;55.50
39969;DHT22;25648;47.808;19.004;2022-12-07T08:41:16;15.20;55.00
39969;DHT22;25648;47.808;19.004;2022-12-07T08:43:42;15.30;54.90
39969;DHT22;25648;47.808;19.004;2022-12-07T08:48:53;16.30;54.60
39969;DHT22;25648;47.808;19.004;2022-12-07T08:51:21;18.70;51.90
39969;DHT22;25648;47.808;19.004;2022-12-07T08:53:47;20.20;50.20
39969;DHT22;25648;47.808;19.004;2022-12-07T08:56:13;22.10;47.30
39969;DHT22;25648;47.808;19.004;2022-12-07T08:58:39;23.10;45.60
39969;DHT22;25648;47.808;19.004;2022-12-07T09:01:05;24.70;44.20
39969;DHT22;25648;47.808;19.004;2022-12-07T09:03:31;24.90;43.10
39969;DHT22;25648;47.808;19.004;2022-12-07T09:05:58;24.30;43.40
39969;DHT22;25648;47.808;19.004;2022-12-07T09:08:28;23.90;43.40
39969;DHT22;25648;47.808;19.004;2022-12-07T09:10:55;22.70;44.30
39969;DHT22;25648;47.808;19.004;2022-12-07T09:13:20;22.10;45.60
39969;DHT22;25648;47.808;19.004;2022-12-07T09:15:46;22.50;45.70
39969;DHT22;25648;47.808;19.004;2022-12-07T09:18:12;22.80;45.20
39969;DHT22;25648;47.808;19.004;2022-12-07T09:20:37;22.70;44.70
39969;DHT22;25648;47.808;19.004;2022-12-07T09:23:05;22.00;44.80
39969;DHT22;25648;47.808;19.004;2022-12-07T09:25:32;20.70;46.00
39969;DHT22;25648;47.808;19.004;2022-12-07T09:27:58;19.40;47.20
39969;DHT22;25648;47.808;19.004;2022-12-07T09:30:24;18.80;48.50
39969;DHT22;25648;47.808;19.004;2022-12-07T09:32:51;18.10;48.60
39969;DHT22;25648;47.808;19.004;2022-12-07T09:35:17;17.00;49.60
39969;DHT22;25648;47.808;19.004;2022-12-07T09:37:43;15.20;52.60
39969;DHT22;25648;47.808;19.004;2022-12-07T09:40:09;14.70;53.80
39969;DHT22;25648;47.808;19.004;2022-12-07T09:42:47;13.90;55.20
39969;DHT22;25648;47.808;19.004;2022-12-07T09:45:27;13.70;56.10
39969;DHT22;25648;47.808;19.004;2022-12-07T09:47:55;13.80;56.00
39969;DHT22;25648;47.808;19.004;2022-12-07T09:50:26;13.40;56.20
39969;DHT22;25648;47.808;19.004;2022-12-07T09:52:54;13.70;56.40
39969;DHT22;25648;47.808;19.004;2022-12-07T09:55:24;14.00;55.80
39969;DHT22;25648;47.808;19.004;2022-12-07T09:57:52;14.10;55.20
39969;DHT22;25648;47.808;19.004;2022-12-07T10:00:20;13.90;55.10
39969;DHT22;25648;47.808;19.004;2022-12-07T10:03:01;14.20;55.30
39969;DHT22;25648;47.808;19.004;2022-12-07T10:05:35;14.50;54.70
39969;DHT22;25648;47.808;19.004;2022-12-07T10:08:03;14.30;54.20
39969;DHT22;25648;47.808;19.004;2022-12-07T10:10:32;14.10;55.40
39969;DHT22;25648;47.808;19.004;2022-12-07T10:13:06;14.00;55.40
39969;DHT22;25648;47.808;19.004;2022-12-07T10:15:52;14.10;55.10
39969;DHT22;25648;47.808;19.004;2022-12-07T10:18:25;14.10;54.80
39969;DHT22;25648;47.808;19.004;2022-12-07T10:23:28;13.50;55.40
39969;DHT22;25648;47.808;19.004;2022-12-07T10:25:54;13.60;56.80
39969;DHT22;25648;47.808;19.004;2022-12-07T10:28:21;14.00;56.30
39969;DHT22;25648;47.808;19.004;2022-12-07T10:31:02;14.50;55.20
39969;DHT22;25648;47.808;19.004;2022-12-07T10:33:49;14.20;55.10
39969;DHT22;25648;47.808;19.004;2022-12-07T10:36:25;14.10;55.10
39969;DHT22;25648;47.808;19.004;2022-12-07T10:39:13;14.30;55.00
39969;DHT22;25648;47.808;19.004;2022-12-07T10:41:55;14.70;55.00
39969;DHT22;25648;47.808;19.004;2022-12-07T10:44:32;14.90;54.50
39969;DHT22;25648;47.808;19.004;2022-12-07T11:00:25;15.50;54.60
39969;DHT22;25648;47.808;19.004;2022-12-07T11:11:16;17.70;50.70
39969;DHT22;25648;47.808;19.004;2022-12-07T11:19:40;17.60;50.50
39969;DHT22;25648;47.808;19.004;2022-12-07T11:25:15;16.80;51.80
39969;DHT22;25648;47.808;19.004;2022-12-07T11:28:04;16.30;51.90
39969;DHT22;25648;47.808;19.004;2022-12-07T11:31:02;15.90;52.40
39969;DHT22;25648;47.808;19.004;2022-12-07T11:33:40;15.40;53.00
39969;DHT22;25648;47.808;19.004;2022-12-07T11:38:45;15.10;54.00
39969;DHT22;25648;47.808;19.004;2022-12-07T11:41:13;15.10;53.60
39969;DHT22;25648;47.808;19.004;2022-12-07T11:44:01;15.10;53.30
39969;DHT22;25648;47.808;19.004;2022-12-07T11:51:39;14.90;54.00
39969;DHT22;25648;47.808;19.004;2022-12-07T11:54:17;15.00;53.70
39969;DHT22;25648;47.808;19.004;2022-12-07T11:56:46;14.70;53.70
39969;DHT22;25648;47.808;19.004;2022-12-07T11:59:20;14.60;53.60
39969;DHT22;25648;47.808;19.004;2022-12-07T12:02:13;14.30;53.70
39969;DHT22;25648;47.808;19.004;2022-12-07T12:07:27;14.30;54.40
39969;DHT22;25648;47.808;19.004;2022-12-07T12:10:00;14.60;54.30
39969;DHT22;25648;47.808;19.004;2022-12-07T12:12:59;14.70;53.90
39969;DHT22;25648;47.808;19.004;2022-12-07T12:21:17;13.80;55.40
39969;DHT22;25648;47.808;19.004;2022-12-07T12:23:59;13.90;55.20
39969;DHT22;25648;47.808;19.004;2022-12-07T12:26:32;13.70;55.10
39969;DHT22;25648;47.808;19.004;2022-12-07T12:29:05;13.80;56.10
39969;DHT22;25648;47.808;19.004;2022-12-07T12:31:38;14.10;55.50
39969;DHT22;25648;47.808;19.004;2022-12-07T12:34:38;14.20;55.00
39969;DHT22;25648;47.808;19.004;2022-12-07T12:42:50;14.00;55.50
39969;DHT22;25648;47.808;19.004;2022-12-07T12:48:03;13.30;55.50
39969;DHT22;25648;47.808;19.004;2022-12-07T12:50:30;13.30;54.80
39969;DHT22;25648;47.808;19.004;2022-12-07T12:56:17;13.40;54.60
39969;DHT22;25648;47.808;19.004;2022-12-07T13:03:31;12.80;55.90
39969;DHT22;25648;47.808;19.004;2022-12-07T13:08:51;12.50;56.10
39969;DHT22;25648;47.808;19.004;2022-12-07T13:11:32;12.60;56.20
39969;DHT22;25648;47.808;19.004;2022-12-07T13:17:11;13.10;55.90
39969;DHT22;25648;47.808;19.004;2022-12-07T13:27:59;13.00;55.20
39969;DHT22;25648;47.808;19.004;2022-12-07T13:30:26;13.00;55.50
39969;DHT22;25648;47.808;19.004;2022-12-07T13:32:57;13.10;55.50
39969;DHT22;25648;47.808;19.004;2022-12-07T13:35:34;13.10;55.90
39969;DHT22;25648;47.808;19.004;2022-12-07T13:38:19;13.20;56.00
39969;DHT22;25648;47.808;19.004;2022-12-07T13:41:20;13.20;56.00
39969;DHT22;25648;47.808;19.004;2022-12-07T13:44:08;13.60;55.30
39969;DHT22;25648;47.808;19.004;2022-12-07T13:49:41;13.80;54.90
39969;DHT22;25648;47.808;19.004;2022-12-07T13:52:43;13.70;55.00
39969;DHT22;25648;47.808;19.004;2022-12-07T13:55:15;13.80;55.30
39969;DHT22;25648;47.808;19.004;2022-12-07T13:57:50;13.70;55.20
39969;DHT22;25648;47.808;19.004;2022-12-07T14:00:23;13.60;56.20
39969;DHT22;25648;47.808;19.004;2022-12-07T14:05:35;13.50;55.60
39969;DHT22;25648;47.808;19.004;2022-12-07T14:08:05;13.10;56.10
39969;DHT22;25648;47.808;19.004;2022-12-07T14:10:42;12.90;56.50
39969;DHT22;25648;47.808;19.004;2022-12-07T14:13:39;12.80;57.20
39969;DHT22;25648;47.808;19.004;2022-12-07T14:16:28;13.00;56.60
39969;DHT22;25648;47.808;19.004;2022-12-07T14:18:56;13.00;56.20
39969;DHT22;25648;47.808;19.004;2022-12-07T14:21:28;13.00;56.80
39969;DHT22;25648;47.808;19.004;2022-12-07T14:24:16;12.90;56.90
39969;DHT22;25648;47.808;19.004;2022-12-07T14:26:44;13.00;56.60
39969;DHT22;25648;47.808;19.004;2022-12-07T14:31:52;13.20;56.70
39969;DHT22;25648;47.808;19.004;2022-12-07T14:34:21;13.20;56.20
39969;DHT22;25648;47.808;19.004;2022-12-07T14:36:47;13.20;56.10
39969;DHT22;25648;47.808;19.004;2022-12-07T14:39:13;13.20;56.30
39969;DHT22;25648;47.808;19.004;2022-12-07T14:41:38;13.20;56.10
39969;DHT22;25648;47.808;19.004;2022-12-07T14:44:17;13.20;55.80
39969;DHT22;25648;47.808;19.004;2022-12-07T14:46:43;13.10;56.50
39969;DHT22;25648;47.808;19.004;2022-12-07T14:49:08;13.20;56.40
39969;DHT22;25648;47.808;19.004;2022-12-07T14:51:37;13.10;56.10
39969;DHT22;25648;47.808;19.004;2022-12-07T14:54:06;13.10;56.30
39969;DHT22;25648;47.808;19.004;2022-12-07T14:56:32;12.90;56.70
39969;DHT22;25648;47.808;19.004;2022-12-07T14:58:58;12.90;57.20
39969;DHT22;25648;47.808;19.004;2022-12-07T15:01:23;12.90;57.30
39969;DHT22;25648;47.808;19.004;2022-12-07T15:03:49;12.80;56.90
39969;DHT22;25648;47.808;19.004;2022-12-07T15:06:17;12.90;56.90
39969;DHT22;25648;47.808;19.004;2022-12-07T15:08:43;12.90;57.00
39969;DHT22;25648;47.808;19.004;2022-12-07T15:11:15;12.70;56.90
39969;DHT22;25648;47.808;19.004;2022-12-07T15:13:41;12.70;57.00
39969;DHT22;25648;47.808;19.004;2022-12-07T15:16:25;12.60;57.40
39969;DHT22;25648;47.808;19.004;2022-12-07T15:18:51;12.60;57.20
39969;DHT22;25648;47.808;19.004;2022-12-07T15:21:17;12.70;56.70
39969;DHT22;25648;47.808;19.004;2022-12-07T15:23:42;12.60;57.00
39969;DHT22;25648;47.808;19.004;2022-12-07T15:26:10;12.80;57.20
39969;DHT22;25648;47.808;19.004;2022-12-07T15:28:36;13.00;56.10
39969;DHT22;25648;47.808;19.004;2022-12-07T15:31:02;13.00;56.00
39969;DHT22;25648;47.808;19.004;2022-12-07T15:33:27;13.00;56.30
39969;DHT22;25648;47.808;19.004;2022-12-07T15:35:53;13.00;55.90
39969;DHT22;25648;47.808;19.004;2022-12-07T15:38:19;13.00;56.00
39969;DHT22;25648;47.808;19.004;2022-12-07T15:40:48;13.00;56.00
39969;DHT22;25648;47.808;19.004;2022-12-07T15:43:14;12.90;56.10
39969;DHT22;25648;47.808;19.004;2022-12-07T15:45:58;13.00;56.20
39969;DHT22;25648;47.808;19.004;2022-12-07T15:48:24;12.90;56.00
39969;DHT22;25648;47.808;19.004;2022-12-07T15:50:50;12.80;55.90
39969;DHT22;25648;47.808;19.004;2022-12-07T15:53:16;12.50;56.60
39969;DHT22;25648;47.808;19.004;2022-12-07T15:55:41;12.70;56.10
39969;DHT22;25648;47.808;19.004;2022-12-07T15:58:07;12.70;56.00
39969;DHT22;25648;47.808;19.004;2022-12-07T16:00:33;12.90;55.50
39969;DHT22;25648;47.808;19.004;2022-12-07T16:02:58;12.80;55.60
39969;DHT22;25648;47.808;19.004;2022-12-07T16:05:24;13.00;55.10
39969;DHT22;25648;47.808;19.004;2022-12-07T16:07:50;13.00;55.20
39969;DHT22;25648;47.808;19.004;2022-12-07T16:10:16;12.80;55.30
39969;DHT22;25648;47.808;19.004;2022-12-07T16:12:42;12.50;56.00
39969;DHT22;25648;47.808;19.004;2022-12-07T16:15:07;12.20;56.30
39969;DHT22;25648;47.808;19.004;2022-12-07T16:17:33;12.20;56.60
39969;DHT22;25648;47.808;19.004;2022-12-07T16:19:59;12.20;57.10
39969;DHT22;25648;47.808;19.004;2022-12-07T16:22:24;12.40;56.70
39969;DHT22;25648;47.808;19.004;2022-12-07T16:24:50;12.40;56.50
39969;DHT22;25648;47.808;19.004;2022-12-07T16:27:16;12.40;56.20
39969;DHT22;25648;47.808;19.004;2022-12-07T16:29:42;12.20;56.00
39969;DHT22;25648;47.808;19.004;2022-12-07T16:32:07;12.30;55.90
39969;DHT22;25648;47.808;19.004;2022-12-07T16:34:33;12.20;56.40
39969;DHT22;25648;47.808;19.004;2022-12-07T16:36:59;11.80;55.80
39969;DHT22;25648;47.808;19.004;2022-12-07T16:39:24;11.30;56.70
39969;DHT22;25648;47.808;19.004;2022-12-07T16:41:50;10.90;58.10
39969;DHT22;25648;47.808;19.004;2022-12-07T16:44:16;10.80;59.00
39969;DHT22;25648;47.808;19.004;2022-12-07T16:46:42;11.10;58.90
39969;DHT22;25648;47.808;19.004;2022-12-07T16:49:12;11.50;57.80
39969;DHT22;25648;47.808;19.004;2022-12-07T16:51:38;11.60;57.30
39969;DHT22;25648;47.808;19.004;2022-12-07T16:54:04;11.60;56.80
39969;DHT22;25648;47.808;19.004;2022-12-07T16:56:30;11.70;56.50
39969;DHT22;25648;47.808;19.004;2022-12-07T16:58:58;11.60;56.10
39969;DHT22;25648;47.808;19.004;2022-12-07T17:01:24;11.30;56.50
39969;DHT22;25648;47.808;19.004;2022-12-07T17:03:50;11.00;58.10
39969;DHT22;25648;47.808;19.004;2022-12-07T17:06:23;10.80;58.30
39969;DHT22;25648;47.808;19.004;2022-12-07T17:08:50;10.80;58.60
39969;DHT22;25648;47.808;19.004;2022-12-07T17:11:22;11.10;58.30
39969;DHT22;25648;47.808;19.004;2022-12-07T17:13:48;11.40;57.70
39969;DHT22;25648;47.808;19.004;2022-12-07T17:16:33;11.50;57.40
39969;DHT22;25648;47.808;19.004;2022-12-07T17:19:06;11.70;56.80
39969;DHT22;25648;47.808;19.004;2022-12-07T17:21:33;11.80;56.30
39969;DHT22;25648;47.808;19.004;2022-12-07T17:23:59;11.80;55.70
39969;DHT22;25648;47.808;19.004;2022-12-07T17:26:26;11.80;55.80
39969;DHT22;25648;47.808;19.004;2022-12-07T17:28:52;11.70;55.70
39969;DHT22;25648;47.808;19.004;2022-12-07T17:31:19;11.70;55.90
39969;DHT22;25648;47.808;19.004;2022-12-07T17:33:45;11.80;55.80
39969;DHT22;25648;47.808;19.004;2022-12-07T17:36:16;11.70;56.10
39969;DHT22;25648;47.808;19.004;2022-12-07T17:38:42;11.60;56.20
39969;DHT22;25648;47.808;19.004;2022-12-07T17:41:15;11.50;55.60